createdAt,value
2019-04-07T00:00:08.948Z,23.52
2019-04-07T00:02:38.474Z,22.45
2019-04-07T00:05:11.901Z,21.62
2019-04-07T00:07:38.004Z,20.65
2019-04-07T00:10:08.729Z,19.85
2019-04-07T00:12:37.501Z,19.12
2019-04-07T00:15:07.066Z,19.98
2019-04-07T00:17:36.209Z,19.12
2019-04-07T00:20:07.228Z,20.25
2019-04-07T00:22:36.084Z,19.02
2019-04-07T00:25:05.262Z,19.17
2019-04-07T00:27:34.155Z,18.02
2019-04-07T00:30:02.802Z,18.37
2019-04-07T00:32:32.814Z,18.48
2019-04-07T00:35:01.505Z,18.92
2019-04-07T00:37:31.077Z,19.17
2019-04-07T00:39:59.998Z,19.05
2019-04-07T00:42:29.179Z,18.32
2019-04-07T00:44:57.868Z,19.10
2019-04-07T00:47:26.685Z,17.37
2019-04-07T00:49:55.591Z,16.50
2019-04-07T00:52:25.471Z,17.65
2019-04-07T00:54:54.591Z,17.65
2019-04-07T00:57:23.285Z,17.75
2019-04-07T00:59:51.980Z,16.80
2019-04-07T01:02:21.231Z,16.50
2019-04-07T01:04:50.604Z,17.57
2019-04-07T01:07:19.393Z,17.25
2019-04-07T01:09:48.107Z,16.27
2019-04-07T01:12:16.801Z,16.10
2019-04-07T01:14:45.459Z,17.57
2019-04-07T01:17:14.876Z,16.67
2019-04-07T01:19:44.217Z,16.40
2019-04-07T01:22:12.847Z,16.30
2019-04-07T01:24:41.777Z,17.57
2019-04-07T01:27:10.507Z,16.55
2019-04-07T01:29:39.942Z,16.32
2019-04-07T01:32:08.855Z,17.27
2019-04-07T01:34:37.546Z,16.25
2019-04-07T01:37:06.285Z,15.23
2019-04-07T01:39:35.066Z,17.35
2019-04-07T01:42:05.820Z,15.63
2019-04-07T01:44:39.769Z,17.12
2019-04-07T01:47:10.053Z,17.10
2019-04-07T01:49:40.330Z,17.12
2019-04-07T01:52:26.256Z,16.12
2019-04-07T01:55:02.730Z,16.95
2019-04-07T01:57:39.797Z,17.25
2019-04-07T02:00:26.559Z,18.25
2019-04-07T02:02:57.156Z,17.00
2019-04-07T02:05:44.298Z,16.97
2019-04-07T02:08:14.760Z,18.40
2019-04-07T02:11:02.502Z,18.40
2019-04-07T02:13:42.868Z,19.25
2019-04-07T02:16:13.151Z,19.95
2019-04-07T02:18:58.875Z,19.75
2019-04-07T02:21:29.586Z,20.57
2019-04-07T02:24:14.773Z,20.43
2019-04-07T02:26:45.585Z,19.73
2019-04-07T02:29:22.136Z,19.07
2019-04-07T02:32:01.562Z,19.52
2019-04-07T02:34:38.074Z,20.17
2019-04-07T02:37:14.541Z,18.87
2019-04-07T02:39:50.759Z,19.27
2019-04-07T02:42:27.199Z,21.30
2019-04-07T02:44:57.526Z,20.97
2019-04-07T02:47:34.062Z,20.52
2019-04-07T02:50:14.077Z,23.25
2019-04-07T02:52:50.463Z,23.07
2019-04-07T02:55:33.541Z,24.55
2019-04-07T02:58:04.513Z,27.45
2019-04-07T03:00:41.391Z,29.55
2019-04-07T03:03:20.862Z,31.70
2019-04-07T03:05:56.833Z,31.50
2019-04-07T03:08:30.220Z,33.13
2019-04-07T03:11:12.445Z,30.45
2019-04-07T03:13:58.991Z,27.20
2019-04-07T03:16:32.118Z,24.95
2019-04-07T03:19:02.465Z,26.17
2019-04-07T03:21:33.076Z,25.88
2019-04-07T03:24:19.571Z,26.33
2019-04-07T03:27:08.155Z,30.20
2019-04-07T03:29:41.732Z,31.87
2019-04-07T03:32:16.459Z,29.12
2019-04-07T03:35:00.176Z,33.02
2019-04-07T03:37:44.792Z,36.50
2019-04-07T03:40:20.128Z,29.75
2019-04-07T03:42:53.111Z,34.38
2019-04-07T03:45:26.565Z,39.42
2019-04-07T03:48:02.737Z,33.05
2019-04-07T03:50:33.357Z,35.50
2019-04-07T03:53:20.233Z,39.77
2019-04-07T03:55:51.306Z,35.55
2019-04-07T03:58:34.363Z,38.88
2019-04-07T04:01:06.659Z,33.30
2019-04-07T04:03:46.081Z,32.03
2019-04-07T04:06:19.416Z,41.65
2019-04-07T04:09:02.203Z,42.35
2019-04-07T04:14:32.018Z,35.10
2019-04-07T04:17:00.818Z,45.00
2019-04-07T04:19:30.188Z,48.65
2019-04-07T04:21:59.003Z,55.15
2019-04-07T04:24:28.411Z,58.73
2019-04-07T04:26:57.316Z,65.40
2019-04-07T04:29:26.528Z,53.73
2019-04-07T04:31:55.690Z,53.42
2019-04-07T04:34:25.121Z,56.53
2019-04-07T04:36:54.509Z,58.58
2019-04-07T04:39:23.288Z,66.82
2019-04-07T04:41:52.092Z,51.10
2019-04-07T04:44:21.869Z,49.93
2019-04-07T04:46:51.037Z,48.73
2019-04-07T04:49:20.003Z,58.60
2019-04-07T04:51:50.127Z,43.25
2019-04-07T04:54:19.359Z,53.15
2019-04-07T04:56:48.286Z,40.45
2019-04-07T04:59:16.961Z,51.85
2019-04-07T05:01:45.649Z,50.85
2019-04-07T05:04:15.111Z,45.28
2019-04-07T05:06:44.567Z,45.05
2019-04-07T05:09:13.391Z,42.62
2019-04-07T05:11:42.755Z,42.53
2019-04-07T05:14:11.669Z,41.35
2019-04-07T05:16:40.355Z,42.35
2019-04-07T05:19:09.744Z,42.00
2019-04-07T05:21:38.545Z,42.43
2019-04-07T05:24:07.234Z,37.50
2019-04-07T05:26:36.485Z,39.33
2019-04-07T05:29:05.930Z,37.03
2019-04-07T05:31:34.778Z,39.08
2019-04-07T05:34:03.480Z,39.60
2019-04-07T05:36:32.501Z,36.58
2019-04-07T05:39:01.236Z,35.05
2019-04-07T05:41:30.463Z,34.65
2019-04-07T05:43:59.863Z,33.48
2019-04-07T05:46:28.526Z,34.25
2019-04-07T05:48:57.571Z,31.15
2019-04-07T05:51:29.934Z,26.97
2019-04-07T05:53:57.083Z,26.37
2019-04-07T05:56:28.088Z,26.07
2019-04-07T05:58:56.069Z,22.95
2019-04-07T06:01:24.871Z,22.13
2019-04-07T06:03:54.465Z,20.68
2019-04-07T06:06:23.193Z,18.80
2019-04-07T06:08:51.906Z,18.95
2019-04-07T06:11:20.584Z,17.95
2019-04-07T06:13:50.378Z,18.98
2019-04-07T06:16:21.017Z,16.27
2019-04-07T06:18:50.139Z,16.42
2019-04-07T06:21:18.906Z,14.38
2019-04-07T06:23:47.637Z,15.03
2019-04-07T06:26:17.282Z,15.03
2019-04-07T06:28:51.283Z,14.20
2019-04-07T06:31:17.313Z,13.88
2019-04-07T06:33:46.807Z,14.13
2019-04-07T06:36:19.438Z,12.75
2019-04-07T06:38:51.236Z,12.98
2019-04-07T06:41:16.432Z,12.15
2019-04-07T06:43:45.188Z,12.60
2019-04-07T06:46:16.176Z,12.20
2019-04-07T06:48:58.513Z,11.70
2019-04-07T06:51:30.910Z,11.83
2019-04-07T06:54:21.625Z,11.73
2019-04-07T06:56:50.017Z,11.90
2019-04-07T06:59:23.364Z,12.10
2019-04-07T07:02:10.357Z,10.90
2019-04-07T07:04:43.586Z,11.33
2019-04-07T07:07:28.134Z,11.20
2019-04-07T07:10:00.659Z,10.03
2019-04-07T07:12:33.542Z,10.38
2019-04-07T07:15:21.162Z,11.20
2019-04-07T07:17:59.309Z,10.82
2019-04-07T07:20:31.672Z,9.58
2019-04-07T07:23:12.198Z,9.98
2019-04-07T07:25:38.505Z,8.58
2019-04-07T07:28:07.584Z,10.45
2019-04-07T07:30:37.577Z,10.08
2019-04-07T07:33:08.846Z,10.23
2019-04-07T07:35:36.543Z,9.95
2019-04-07T07:38:05.934Z,9.58
2019-04-07T07:40:35.112Z,9.03
2019-04-07T07:43:05.484Z,9.00
2019-04-07T07:45:34.473Z,9.88
2019-04-07T07:48:03.192Z,9.48
2019-04-07T07:50:31.928Z,9.03
2019-04-07T07:53:01.378Z,9.40
2019-04-07T07:55:33.729Z,9.05
2019-04-07T07:58:01.048Z,9.08
2019-04-07T08:00:30.014Z,8.78
2019-04-07T08:02:59.191Z,8.95
2019-04-07T08:05:31.770Z,8.65
2019-04-07T08:07:58.436Z,8.43
2019-04-07T08:10:27.644Z,8.40
2019-04-07T08:12:56.442Z,9.13
2019-04-07T08:15:29.745Z,8.38
2019-04-07T08:17:56.288Z,9.00
2019-04-07T08:20:25.064Z,8.65
2019-04-07T08:22:54.003Z,8.08
2019-04-07T08:25:24.763Z,8.05
2019-04-07T08:27:53.170Z,8.18
2019-04-07T08:30:21.859Z,9.30
2019-04-07T08:32:50.549Z,7.62
2019-04-07T08:35:19.775Z,6.87
2019-04-07T08:37:49.193Z,7.28
2019-04-07T08:40:18.790Z,8.10
2019-04-07T08:42:49.073Z,8.23
2019-04-07T08:45:18.923Z,7.65
2019-04-07T08:47:50.024Z,8.10
2019-04-07T08:50:20.810Z,7.10
2019-04-07T08:52:48.957Z,7.72
2019-04-07T08:55:20.075Z,7.05
2019-04-07T08:57:48.047Z,7.12
2019-04-07T09:00:21.442Z,7.97
2019-04-07T09:03:00.223Z,6.95
2019-04-07T09:05:25.595Z,6.03
2019-04-07T09:07:51.785Z,7.58
2019-04-07T09:10:22.296Z,7.92
2019-04-07T09:12:51.051Z,7.60
2019-04-07T09:15:21.444Z,7.60
2019-04-07T09:17:55.507Z,7.55
2019-04-07T09:20:40.303Z,7.30
2019-04-07T09:23:19.040Z,6.92
2019-04-07T09:26:04.442Z,6.60
2019-04-07T09:28:47.484Z,7.20
2019-04-07T09:31:36.415Z,6.45
2019-04-07T09:34:23.102Z,6.50
2019-04-07T09:37:00.227Z,6.70
2019-04-07T09:39:52.809Z,5.87
2019-04-07T09:42:25.690Z,6.42
2019-04-07T09:45:02.078Z,5.90
2019-04-07T09:47:32.605Z,6.20
2019-04-07T09:50:03.581Z,5.70
2019-04-07T09:52:45.123Z,5.47
2019-04-07T09:55:32.070Z,5.62
2019-04-07T09:58:07.966Z,4.92
2019-04-07T10:00:39.899Z,4.75
2019-04-07T10:03:15.164Z,4.83
2019-04-07T10:05:48.488Z,5.17
2019-04-07T10:08:33.572Z,4.92
2019-04-07T10:11:09.717Z,4.75
2019-04-07T10:13:51.985Z,5.45
2019-04-07T10:16:22.294Z,5.15
2019-04-07T10:19:01.959Z,4.80
2019-04-07T10:21:41.761Z,4.75
2019-04-07T10:24:29.034Z,4.85
2019-04-07T10:27:02.368Z,5.03
2019-04-07T10:29:33.083Z,4.95
2019-04-07T10:32:06.729Z,4.78
2019-04-07T10:34:37.478Z,4.40
2019-04-07T10:37:19.752Z,4.75
2019-04-07T10:39:52.730Z,4.60
2019-04-07T10:42:29.319Z,4.25
2019-04-07T10:45:12.028Z,4.62
2019-04-07T10:47:46.022Z,4.50
2019-04-07T10:50:20.005Z,5.35
2019-04-07T10:52:53.533Z,4.28
2019-04-07T10:55:29.279Z,4.65
2019-04-07T10:58:11.622Z,4.28
2019-04-07T11:00:50.652Z,3.87
2019-04-07T11:03:29.482Z,4.58
2019-04-07T11:06:15.008Z,4.62
2019-04-07T11:08:55.461Z,4.20
2019-04-07T11:11:43.691Z,4.05
2019-04-07T11:14:14.218Z,4.40
2019-04-07T11:16:47.442Z,3.90
2019-04-07T11:19:28.407Z,4.28
2019-04-07T11:21:58.707Z,4.05
2019-04-07T11:24:35.179Z,3.87
2019-04-07T11:27:09.150Z,3.98
2019-04-07T11:29:39.738Z,3.77
2019-04-07T11:32:19.577Z,3.80
2019-04-07T11:34:55.977Z,3.60
2019-04-07T11:37:35.344Z,3.95
2019-04-07T11:40:13.155Z,3.33
2019-04-07T11:42:46.462Z,3.70
2019-04-07T11:45:31.497Z,3.60
2019-04-07T11:48:01.753Z,3.95
2019-04-07T11:50:38.141Z,3.92
2019-04-07T11:53:11.166Z,3.70
2019-04-07T11:55:44.271Z,3.33
2019-04-07T11:58:30.884Z,3.08
2019-04-07T12:00:55.443Z,3.27
2019-04-07T12:03:38.705Z,3.22
2019-04-07T12:06:14.367Z,2.80
2019-04-07T12:08:50.037Z,2.90
2019-04-07T12:11:26.232Z,2.98
2019-04-07T12:13:59.775Z,3.20
2019-04-07T12:16:39.096Z,3.02
2019-04-07T12:19:27.902Z,2.60
2019-04-07T12:21:58.433Z,2.83
2019-04-07T12:24:38.024Z,3.00
2019-04-07T12:27:10.838Z,3.37
2019-04-07T12:29:44.548Z,2.87
2019-04-07T12:32:30.310Z,3.10
2019-04-07T12:35:09.703Z,2.50
2019-04-07T12:37:43.745Z,2.80
2019-04-07T12:40:15.239Z,2.98
2019-04-07T12:43:04.562Z,2.75
2019-04-07T12:45:44.935Z,2.67
2019-04-07T12:48:15.677Z,3.05
2019-04-07T12:50:55.231Z,3.13
2019-04-07T12:53:32.118Z,3.08
2019-04-07T12:56:01.900Z,2.90
2019-04-07T12:58:32.367Z,2.60
2019-04-07T13:01:09.602Z,2.57
2019-04-07T13:03:40.821Z,2.52
2019-04-07T13:06:27.663Z,2.35
2019-04-07T13:09:00.762Z,2.40
2019-04-07T13:11:38.470Z,2.40
2019-04-07T13:14:23.769Z,2.50
2019-04-07T13:17:11.605Z,2.65
2019-04-07T13:19:58.798Z,2.30
2019-04-07T13:22:36.404Z,2.58
2019-04-07T13:25:24.249Z,2.27
2019-04-07T13:28:08.174Z,2.20
2019-04-07T13:30:45.596Z,2.50
2019-04-07T13:33:32.984Z,2.35
2019-04-07T13:36:06.173Z,2.15
2019-04-07T13:38:43.050Z,2.27
2019-04-07T13:41:38.748Z,2.22
2019-04-07T13:44:05.677Z,2.00
2019-04-07T13:46:37.654Z,1.92
2019-04-07T13:49:27.398Z,2.10
2019-04-07T13:51:59.524Z,1.80
2019-04-07T13:54:39.393Z,2.12
2019-04-07T13:57:26.289Z,2.17
2019-04-07T13:59:59.023Z,1.90
2019-04-07T14:02:45.616Z,1.72
2019-04-07T14:05:18.913Z,2.00
2019-04-07T14:07:55.225Z,2.40
2019-04-07T14:10:35.649Z,1.90
2019-04-07T14:13:07.724Z,2.30
2019-04-07T14:15:49.732Z,2.20
2019-04-07T14:18:20.228Z,2.40
2019-04-07T14:20:56.222Z,2.10
2019-04-07T14:23:29.775Z,2.22
2019-04-07T14:26:06.728Z,1.87
2019-04-07T14:28:40.187Z,2.70
2019-04-07T14:31:10.837Z,2.77
2019-04-07T14:33:57.825Z,2.63
2019-04-07T14:36:31.535Z,2.08
2019-04-07T14:39:13.991Z,2.47
2019-04-07T14:42:04.927Z,2.47
2019-04-07T14:44:35.859Z,2.40
2019-04-07T14:47:12.778Z,2.60
2019-04-07T14:49:51.550Z,2.55
2019-04-07T14:52:30.712Z,2.50
2019-04-07T14:55:18.399Z,3.02
2019-04-07T14:58:04.509Z,2.47
2019-04-07T15:00:40.720Z,2.40
2019-04-07T15:03:09.454Z,2.35
2019-04-07T15:05:39.669Z,2.47
2019-04-07T15:08:10.592Z,2.30
2019-04-07T15:10:47.319Z,2.55
2019-04-07T15:13:29.591Z,2.10
2019-04-07T15:15:58.479Z,2.20
2019-04-07T15:18:27.599Z,2.10
2019-04-07T15:20:57.217Z,2.12
2019-04-07T15:23:29.475Z,2.17
2019-04-07T15:25:56.828Z,2.08
2019-04-07T15:28:29.742Z,2.20
2019-04-07T15:30:56.828Z,2.20
2019-04-07T15:33:25.960Z,2.40
2019-04-07T15:35:54.923Z,1.90
2019-04-07T15:38:26.993Z,2.10
2019-04-07T15:40:54.045Z,2.17
2019-04-07T15:43:22.824Z,1.85
2019-04-07T15:45:52.180Z,2.17
2019-04-07T15:48:24.169Z,2.00
2019-04-07T15:50:51.783Z,2.00
2019-04-07T15:53:20.931Z,2.08
2019-04-07T15:55:58.492Z,2.33
2019-04-07T15:58:20.506Z,2.05
2019-04-07T16:00:49.301Z,1.90
2019-04-07T16:03:18.108Z,2.50
2019-04-07T16:05:46.841Z,2.27
2019-04-07T16:08:16.107Z,2.17
2019-04-07T16:10:45.349Z,2.00
2019-04-07T16:13:14.072Z,2.30
2019-04-07T16:15:44.904Z,2.12
2019-04-07T16:18:13.122Z,2.00
2019-04-07T16:20:42.080Z,2.00
2019-04-07T16:23:10.897Z,2.33
2019-04-07T16:25:40.844Z,2.00
2019-04-07T16:28:13.273Z,2.30
2019-04-07T16:30:40.792Z,2.25
2019-04-07T16:33:09.978Z,2.30
2019-04-07T16:35:39.726Z,2.10
2019-04-07T16:38:09.451Z,2.22
2019-04-07T16:40:40.499Z,2.20
2019-04-07T16:43:14.484Z,2.05
2019-04-07T16:45:38.891Z,2.05
2019-04-07T16:48:07.827Z,2.08
2019-04-07T16:50:38.110Z,2.35
2019-04-07T16:53:08.843Z,2.22
2019-04-07T16:55:40.156Z,2.17
2019-04-07T17:00:39.715Z,1.90
2019-04-07T17:03:09.713Z,2.10
2019-04-07T17:05:39.550Z,2.47
2019-04-07T17:08:08.907Z,2.10
2019-04-07T17:10:37.647Z,2.40
2019-04-07T17:13:16.998Z,2.17
2019-04-07T17:15:39.541Z,2.17
2019-04-07T17:18:08.928Z,2.30
2019-04-07T17:20:39.002Z,2.52
2019-04-07T17:23:07.866Z,2.47
2019-04-07T17:25:37.531Z,2.52
2019-04-07T17:28:06.519Z,2.27
2019-04-07T17:30:38.035Z,2.15
2019-04-07T17:33:06.562Z,2.67
2019-04-07T17:35:35.869Z,2.40
2019-04-07T17:38:06.905Z,2.35
2019-04-07T17:40:37.679Z,2.50
2019-04-07T17:43:08.246Z,2.20
2019-04-07T17:45:41.919Z,2.42
2019-04-07T17:48:17.116Z,2.33
2019-04-07T17:51:04.636Z,2.33
2019-04-07T17:53:41.325Z,2.40
2019-04-07T17:56:24.180Z,2.58
2019-04-07T17:58:57.580Z,2.58
2019-04-07T18:01:46.460Z,2.70
2019-04-07T18:04:23.031Z,2.50
2019-04-07T18:06:53.893Z,2.62
2019-04-07T18:09:37.108Z,2.80
2019-04-07T18:12:14.454Z,2.87
2019-04-07T18:14:45.814Z,2.67
2019-04-07T18:17:16.315Z,3.42
2019-04-07T18:19:52.647Z,2.85
2019-04-07T18:22:23.882Z,2.75
2019-04-07T18:25:14.101Z,2.75
2019-04-07T18:28:01.084Z,2.62
2019-04-07T18:30:33.346Z,2.92
2019-04-07T18:33:04.287Z,3.05
2019-04-07T18:35:52.884Z,2.60
2019-04-07T18:38:42.704Z,3.40
2019-04-07T18:41:17.327Z,3.10
2019-04-07T18:44:04.586Z,3.47
2019-04-07T18:46:31.714Z,3.22
2019-04-07T18:49:20.354Z,3.20
2019-04-07T18:51:53.741Z,3.40
2019-04-07T18:54:24.841Z,2.90
2019-04-07T18:57:01.317Z,3.05
2019-04-07T18:59:31.674Z,3.08
2019-04-07T19:02:18.238Z,3.40
2019-04-07T19:04:49.188Z,3.25
2019-04-07T19:10:03.716Z,3.27
2019-04-07T19:12:29.209Z,3.00
2019-04-07T19:15:10.543Z,2.65
2019-04-07T19:17:58.619Z,3.33
2019-04-07T19:20:27.860Z,2.92
2019-04-07T19:23:02.339Z,3.22
2019-04-07T19:25:48.572Z,2.70
2019-04-07T19:28:19.010Z,3.00
2019-04-07T19:31:06.663Z,2.92
2019-04-07T19:33:37.692Z,2.80
2019-04-07T19:36:24.475Z,2.92
2019-04-07T19:39:11.613Z,2.80
2019-04-07T19:42:04.665Z,2.85
2019-04-07T19:44:37.127Z,2.92
2019-04-07T19:47:10.743Z,2.95
2019-04-07T19:49:57.619Z,2.83
2019-04-07T19:52:46.398Z,2.90
2019-04-07T19:55:17.736Z,3.00
2019-04-07T19:58:05.582Z,2.80
2019-04-07T20:00:45.886Z,2.87
2019-04-07T20:03:39.179Z,3.20
2019-04-07T20:06:24.868Z,2.80
2019-04-07T20:09:11.573Z,3.02
2019-04-07T20:12:02.862Z,3.35
2019-04-07T20:14:49.249Z,3.10
2019-04-07T20:17:17.362Z,3.27
2019-04-07T20:19:59.924Z,3.17
2019-04-07T20:22:49.325Z,3.12
2019-04-07T20:25:20.376Z,3.40
2019-04-07T20:27:51.232Z,3.25
2019-04-07T20:30:33.755Z,2.92
2019-04-07T20:33:18.838Z,3.30
2019-04-07T20:35:52.231Z,2.90
2019-04-07T20:38:40.163Z,3.27
2019-04-07T20:41:17.038Z,3.22
2019-04-07T20:44:03.889Z,3.50
2019-04-07T20:46:38.026Z,3.25
2019-04-07T20:49:23.133Z,3.35
2019-04-07T20:51:56.425Z,3.58
2019-04-07T20:54:26.875Z,3.30
2019-04-07T20:57:02.561Z,3.83
2019-04-07T20:59:33.284Z,3.42
2019-04-07T21:02:09.832Z,3.47
2019-04-07T21:04:39.621Z,3.45
2019-04-07T21:07:29.815Z,3.37
2019-04-07T21:10:09.483Z,3.58
2019-04-07T21:12:38.940Z,3.77
2019-04-07T21:15:29.609Z,3.87
2019-04-07T21:18:05.618Z,4.12
2019-04-07T21:20:52.963Z,3.83
2019-04-07T21:23:33.136Z,3.62
2019-04-07T21:26:20.945Z,3.90
2019-04-07T21:28:51.289Z,3.95
2019-04-07T21:31:37.982Z,3.72
2019-04-07T21:34:27.056Z,4.10
2019-04-07T21:37:00.965Z,4.08
2019-04-07T21:39:34.425Z,4.00
2019-04-07T21:42:22.225Z,3.85
2019-04-07T21:45:05.427Z,4.30
2019-04-07T21:47:39.827Z,3.77
2019-04-07T21:50:21.980Z,4.35
2019-04-07T21:53:08.448Z,3.70
2019-04-07T21:55:43.062Z,3.98
2019-04-07T21:58:23.212Z,4.03
2019-04-07T22:00:51.713Z,4.42
2019-04-07T22:53:22.539Z,3.80
2019-04-07T22:55:49.437Z,4.15
2019-04-07T22:58:18.739Z,3.87
2019-04-07T23:00:47.630Z,4.80
2019-04-07T23:03:16.412Z,4.03
2019-04-07T23:05:45.848Z,4.90
2019-04-07T23:08:14.819Z,4.30
2019-04-07T23:10:44.262Z,4.42
2019-04-07T23:13:13.282Z,4.80
2019-04-07T23:15:45.565Z,4.20
2019-04-07T23:18:12.532Z,4.72
2019-04-07T23:20:41.719Z,4.80
2019-04-07T23:23:10.998Z,4.30
2019-04-07T23:25:39.922Z,4.35
2019-04-07T23:28:08.712Z,4.50
2019-04-07T23:30:37.502Z,4.10
2019-04-07T23:33:06.324Z,4.45
2019-04-07T23:35:35.178Z,4.30
2019-04-07T23:38:03.870Z,4.35
2019-04-07T23:40:32.656Z,4.00
2019-04-07T23:43:01.340Z,4.67
2019-04-07T23:45:30.131Z,4.10
2019-04-07T23:47:59.766Z,4.25
2019-04-07T23:50:29.410Z,4.30
2019-04-07T23:53:01.413Z,4.45
2019-04-07T23:55:30.201Z,4.87
2019-04-07T23:57:58.888Z,4.97
